This is the latest recevied weather packets stored in our database for station/object JO1YDG-13. If no packets are shown the sender has not sent any weather packets the latest 10 day(s).
| Time | Temp. | Humidity | Pressure | Rain* | Wind** | Luminosity | Snow |
|---|---|---|---|---|---|---|---|
| 1777881676 | 24.44° C | 34% | 970.6 hPa | 0 mm | - | - | - |
| 1777881376 | 25° C | 32% | 970.6 hPa | 0 mm | - | - | - |
| 1777881076 | 25.56° C | 28% | 970.4 hPa | 0 mm | - | - | - |
| 1777880776 | 26.67° C | 24% | 969.8 hPa | 0 mm | - | - | - |
| 1777880476 | 26.67° C | 23% | 969.8 hPa | 0 mm | - | - | - |
| 1777880176 | 27.22° C | 23% | 969.3 hPa | 0 mm | - | - | - |
| 1777879875 | 27.22° C | 22% | 969.3 hPa | 0 mm | - | - | - |
| 1777879575 | 28.33° C | 21% | 968.8 hPa | 0 mm | - | - | - |
| 1777879277 | 28.33° C | 21% | 968.8 hPa | 0 mm | - | - | - |
| 1777878977 | 27.78° C | 22% | 968.8 hPa | 0 mm | - | - | - |
| 1777878677 | 27.78° C | 23% | 968.9 hPa | 0 mm | - | - | - |
| 1777878376 | 27.78° C | 23% | 968.9 hPa | 0 mm | - | - | - |
| 1777878076 | 28.33° C | 24% | 968.8 hPa | 0 mm | - | - | - |
| 1777877776 | 27.78° C | 23% | 968.8 hPa | 0 mm | - | - | - |
| 1777877476 | 28.89° C | 23% | 968.8 hPa | 0 mm | - | - | - |
| 1777877176 | 28.89° C | 23% | 968.9 hPa | 0 mm | - | - | - |
| 1777876876 | 28.33° C | 24% | 968.9 hPa | 0 mm | - | - | - |
| 1777876575 | 28.89° C | 23% | 968.4 hPa | 0 mm | - | - | - |
| 1777876275 | 29.44° C | 22% | 968.4 hPa | 0 mm | - | - | - |
| 1777875975 | 29.44° C | 21% | 968 hPa | 0 mm | - | - | - |
| 1777875677 | 29.44° C | 21% | 968 hPa | 0 mm | - | - | - |
| 1777875377 | 28.89° C | 20% | 968 hPa | 0 mm | - | - | - |
| 1777875076 | 29.44° C | 19% | 967.7 hPa | 0 mm | - | - | - |
| 1777874776 | 28.89° C | 20% | 967.7 hPa | 0 mm | - | - | - |
| 1777874476 | 28.89° C | 19% | 967.7 hPa | 0 mm | - | - | - |
* Rain latest hour (hover to see other rain measurements)
** Current wind speed in m/s (hover to see current wind gust speed)